Time;durP1;ratioP1;P1;durP2;ratioP2;P2;SDS_P1;SDS_P2;PMS_P1;PMS_P2;Temp;Humidity;BMP_temperature;BMP_pressure;BME280_temperature;BME280_humidity;BME280_pressure;Samples;Min_cycle;Max_cycle;Signal;HPM_P1;HPM_P2
2021/11/05 00:04:49;;;;;;;42.58;25.02;;;7.30;99.90;;;;;;12304002;28;20133;-85
2021/11/05 00:10:52;;;;;;;41.28;24.80;;;7.20;99.90;;;;;;12301076;28;20097;-86
2021/11/05 00:16:53;;;;;;;45.83;26.13;;;7.30;99.90;;;;;;12307185;28;20141;-85
2021/11/05 00:22:56;;;;;;;42.70;25.25;;;7.30;99.90;;;;;;12298428;28;20046;-85
2021/11/05 00:28:58;;;;;;;40.08;24.02;;;7.30;99.90;;;;;;12308489;28;20062;-86
2021/11/05 00:35:00;;;;;;;40.20;26.05;;;7.20;99.90;;;;;;12303479;28;20035;-86
2021/11/05 00:41:02;;;;;;;43.50;24.40;;;7.30;99.90;;;;;;12298903;28;20051;-85
2021/11/05 00:47:04;;;;;;;42.45;23.73;;;7.30;99.90;;;;;;12304061;28;20508;-85
2021/11/05 00:53:06;;;;;;;40.05;23.45;;;7.20;99.90;;;;;;12301601;28;20101;-85
2021/11/05 00:59:07;;;;;;;41.47;23.55;;;7.30;99.90;;;;;;12307762;28;20138;-85
2021/11/05 01:05:12;;;;;;;38.20;22.25;;;7.20;99.90;;;;;;12305339;28;20046;-86
2021/11/05 01:11:14;;;;;;;41.42;23.33;;;7.20;99.90;;;;;;12304625;28;20070;-86
2021/11/05 01:17:16;;;;;;;36.47;21.17;;;7.10;99.90;;;;;;12304718;28;20047;-86
2021/11/05 01:23:21;;;;;;;40.60;21.88;;;7.20;99.90;;;;;;12321075;28;20489;-87
2021/11/05 01:29:23;;;;;;;39.95;22.08;;;7.10;99.90;;;;;;12316235;28;20066;-85
2021/11/05 01:35:25;;;;;;;42.65;22.02;;;7.10;99.90;;;;;;12295996;28;20106;-85
2021/11/05 01:41:27;;;;;;;44.97;23.25;;;7.20;99.90;;;;;;12302118;28;20126;-85
2021/11/05 01:47:29;;;;;;;42.90;22.50;;;7.10;99.90;;;;;;12303286;28;20478;-85
2021/11/05 01:53:32;;;;;;;44.17;22.77;;;7.10;99.90;;;;;;12321677;28;20990;-86
2021/11/05 01:59:35;;;;;;;45.35;23.27;;;7.20;99.90;;;;;;12306192;28;20050;-86
2021/11/05 02:13:03;;;;;;;;;;;7.10;99.90;;;;;;12306320;28;20093;-85
2021/11/05 02:19:10;;;;;;;43.10;22.60;;;7.10;99.90;;;;;;12311239;28;19926;-85
2021/11/05 02:25:12;;;;;;;45.90;23.13;;;7.00;99.90;;;;;;12302002;28;20352;-86
2021/11/05 02:31:14;;;;;;;44.83;22.83;;;7.00;99.90;;;;;;12309792;28;20207;-85
2021/11/05 02:37:23;;;;;;;46.42;22.92;;;7.00;99.90;;;;;;12308434;28;20731;-85
2021/11/05 02:43:25;;;;;;;45.88;22.80;;;7.00;99.90;;;;;;12311238;28;20700;-86
2021/11/05 02:49:26;;;;;;;42.92;22.20;;;6.90;99.90;;;;;;12318064;28;20333;-85
2021/11/05 02:55:28;;;;;;;45.75;22.38;;;6.90;99.90;;;;;;12306412;28;20504;-86
2021/11/05 03:01:31;;;;;;;43.97;23.15;;;6.90;99.90;;;;;;12309404;28;20051;-85
2021/11/05 03:07:32;;;;;;;40.13;21.65;;;6.90;99.90;;;;;;12300625;28;20051;-86
2021/11/05 03:13:34;;;;;;;45.35;22.00;;;6.90;99.90;;;;;;12312536;28;20557;-86
2021/11/05 03:19:36;;;;;;;45.45;22.95;;;6.90;99.90;;;;;;12315372;28;20105;-86
2021/11/05 03:25:39;;;;;;;41.78;22.75;;;6.80;99.90;;;;;;12318726;28;20149;-86
2021/11/05 03:31:41;;;;;;;50.90;21.92;;;6.70;99.90;;;;;;12306392;28;20050;-86
2021/11/05 03:37:44;;;;;;;46.50;23.63;;;6.80;99.90;;;;;;12310099;28;20871;-86
2021/11/05 03:43:46;;;;;;;43.38;22.10;;;6.80;99.90;;;;;;12306545;28;20113;-84
2021/11/05 03:49:48;;;;;;;46.53;24.58;;;6.80;99.90;;;;;;12329452;28;20051;-87
2021/11/05 03:55:50;;;;;;;44.25;23.27;;;6.80;99.90;;;;;;12298138;28;20055;-85
2021/11/05 04:01:52;;;;;;;47.08;23.30;;;6.90;99.90;;;;;;12306282;28;20129;-86
2021/11/05 04:07:53;;;;;;;41.33;23.08;;;6.90;99.90;;;;;;12317349;28;20046;-86
2021/11/05 04:13:55;;;;;;;42.22;22.88;;;6.90;99.90;;;;;;12313524;28;20047;-85
2021/11/05 04:19:57;;;;;;;42.97;22.27;;;6.80;99.90;;;;;;12321355;28;20589;-86
2021/11/05 04:26:00;;;;;;;40.58;21.65;;;6.90;99.90;;;;;;12305103;28;20116;-85
2021/11/05 04:32:04;;;;;;;43.17;22.08;;;6.90;99.90;;;;;;12305602;28;20090;-86
2021/11/05 04:38:06;;;;;;;40.93;21.87;;;7.00;99.90;;;;;;12306777;28;20050;-85
2021/11/05 04:44:07;;;;;;;50.08;23.77;;;7.00;99.90;;;;;;12299199;28;20085;-85
2021/11/05 04:50:10;;;;;;;40.90;21.75;;;6.80;99.90;;;;;;12308045;28;20055;-85
2021/11/05 04:56:12;;;;;;;47.53;22.98;;;6.90;99.90;;;;;;12306715;28;20059;-85
2021/11/05 05:02:14;;;;;;;47.90;23.48;;;6.80;99.90;;;;;;12294536;28;20753;-86
2021/11/05 05:08:16;;;;;;;48.58;21.85;;;6.80;99.90;;;;;;12296691;28;20050;-85
2021/11/05 05:14:18;;;;;;;44.55;22.25;;;6.80;99.90;;;;;;12309472;28;20409;-85
2021/11/05 05:20:20;;;;;;;45.78;20.75;;;6.90;99.90;;;;;;12305339;28;20101;-85
2021/11/05 05:26:22;;;;;;;44.55;21.27;;;6.80;99.90;;;;;;12312090;28;20095;-85
2021/11/05 05:32:24;;;;;;;42.72;21.75;;;6.80;99.90;;;;;;12323833;28;20049;-85
2021/11/05 05:38:26;;;;;;;45.80;22.55;;;6.90;99.90;;;;;;12306258;28;20590;-86
2021/11/05 05:44:28;;;;;;;45.40;22.33;;;6.90;99.90;;;;;;12310424;28;20057;-86
2021/11/05 05:50:29;;;;;;;40.78;20.05;;;7.00;99.90;;;;;;12309371;28;20047;-85
2021/11/05 05:56:33;;;;;;;43.67;20.13;;;7.00;99.90;;;;;;12315740;28;20055;-86
2021/11/05 06:02:36;;;;;;;36.40;19.45;;;7.10;99.90;;;;;;12322011;28;20594;-85
2021/11/05 06:08:40;;;;;;;39.13;19.10;;;7.00;99.90;;;;;;12309318;28;20094;-86
2021/11/05 06:14:42;;;;;;;40.47;18.08;;;7.00;99.90;;;;;;12313728;28;20087;-86
2021/11/05 06:20:43;;;;;;;37.03;17.77;;;6.90;99.90;;;;;;12307630;28;20081;-85
2021/11/05 06:26:45;;;;;;;35.67;17.63;;;7.10;99.90;;;;;;12309448;28;21556;-86
2021/11/05 06:32:47;;;;;;;36.05;17.33;;;7.10;99.90;;;;;;12310190;28;20828;-85
2021/11/05 06:38:49;;;;;;;33.03;15.75;;;7.10;99.90;;;;;;12312180;28;20059;-84
2021/11/05 06:44:52;;;;;;;32.00;17.02;;;7.10;99.90;;;;;;12307586;28;20138;-85
2021/11/05 06:50:56;;;;;;;35.70;17.55;;;7.10;99.90;;;;;;12307069;28;20043;-86
2021/11/05 06:56:58;;;;;;;34.40;17.37;;;7.00;99.90;;;;;;12309857;28;20046;-85
2021/11/05 07:03:00;;;;;;;40.42;18.35;;;7.00;99.90;;;;;;12304588;28;20306;-85
2021/11/05 07:09:02;;;;;;;36.35;17.88;;;7.20;99.90;;;;;;12303146;28;20066;-85
2021/11/05 07:15:05;;;;;;;32.03;16.42;;;7.10;99.90;;;;;;12312194;28;20467;-84
2021/11/05 07:21:07;;;;;;;33.67;17.08;;;7.10;99.90;;;;;;12309414;28;20091;-85
2021/11/05 07:27:10;;;;;;;30.33;16.05;;;7.20;99.90;;;;;;12313040;28;20933;-85
2021/11/05 07:33:13;;;;;;;36.83;16.27;;;7.30;99.90;;;;;;12317042;28;20106;-85
2021/11/05 07:39:15;;;;;;;29.33;15.13;;;7.20;99.90;;;;;;12330146;28;20078;-84
2021/11/05 07:45:18;;;;;;;27.92;14.85;;;7.30;99.90;;;;;;12319602;28;20051;-85
2021/11/05 07:51:20;;;;;;;28.60;14.45;;;7.30;99.90;;;;;;12310153;28;20077;-84
2021/11/05 07:57:22;;;;;;;29.20;14.10;;;7.40;99.90;;;;;;12305833;28;20585;-85
2021/11/05 08:03:24;;;;;;;29.85;14.48;;;7.40;99.90;;;;;;12307960;28;20419;-84
2021/11/05 08:09:26;;;;;;;27.30;12.65;;;7.50;99.90;;;;;;12312825;28;20050;-85
2021/11/05 08:15:29;;;;;;;21.92;11.63;;;7.50;99.90;;;;;;12298403;28;20053;-85
2021/11/05 08:21:33;;;;;;;25.25;11.63;;;7.40;99.90;;;;;;12301862;28;20051;-85
2021/11/05 08:27:37;;;;;;;22.48;10.63;;;7.50;99.90;;;;;;12299002;28;20466;-84
2021/11/05 08:33:40;;;;;;;23.45;11.38;;;7.50;99.90;;;;;;12297687;28;20053;-85
2021/11/05 08:39:42;;;;;;;23.02;10.35;;;7.50;99.90;;;;;;12301209;28;20465;-85
2021/11/05 08:45:44;;;;;;;20.70;9.85;;;7.60;99.90;;;;;;12294612;28;20617;-85
2021/11/05 08:51:47;;;;;;;20.17;10.10;;;7.60;99.90;;;;;;12312026;28;20065;-85
2021/11/05 08:57:49;;;;;;;19.73;9.52;;;7.70;99.90;;;;;;12309698;28;20043;-85
2021/11/05 09:03:54;;;;;;;19.98;9.40;;;7.70;99.90;;;;;;12302878;28;20050;-85
2021/11/05 09:09:56;;;;;;;18.27;8.38;;;7.80;99.90;;;;;;12342656;28;20181;-85
2021/11/05 09:15:59;;;;;;;20.92;9.00;;;7.90;99.90;;;;;;12311416;28;20035;-84
2021/11/05 09:22:00;;;;;;;19.58;8.85;;;7.90;99.90;;;;;;12308586;28;20047;-84
2021/11/05 09:28:03;;;;;;;18.55;9.23;;;8.10;99.90;;;;;;12306756;28;20059;-85
2021/11/05 09:34:05;;;;;;;16.77;9.90;;;8.00;99.90;;;;;;12319660;28;20435;-86
2021/11/05 09:40:10;;;;;;;21.17;9.23;;;8.20;99.90;;;;;;12316265;28;20082;-85
2021/11/05 09:46:12;;;;;;;16.67;8.27;;;8.30;99.90;;;;;;12345788;28;20075;-85
2021/11/05 09:52:16;;;;;;;21.58;9.00;;;8.40;99.90;;;;;;12309466;28;20483;-85
2021/11/05 09:58:18;;;;;;;18.40;9.05;;;8.30;99.90;;;;;;12317492;28;20182;-85
2021/11/05 10:04:20;;;;;;;23.40;9.10;;;8.30;99.90;;;;;;12312105;28;20054;-86
2021/11/05 10:10:26;;;;;;;17.40;9.02;;;8.40;99.90;;;;;;12309882;28;20093;-86
2021/11/05 10:16:29;;;;;;;23.17;10.55;;;8.40;99.90;;;;;;12344667;28;20058;-85
2021/11/05 10:22:53;;;;;;;15.53;8.80;;;8.20;99.90;;;;;;12311953;28;20061;-85
2021/11/05 10:28:55;;;;;;;19.10;9.55;;;8.30;99.90;;;;;;12309992;28;20105;-85
2021/11/05 10:35:17;;;;;;;20.23;10.35;;;8.30;99.90;;;;;;12309821;28;20047;-86
2021/11/05 10:41:22;;;;;;;19.90;10.10;;;8.30;99.90;;;;;;12311207;28;20143;-85
2021/11/05 10:47:23;;;;;;;16.88;9.27;;;8.50;99.90;;;;;;12314632;28;20519;-85
2021/11/05 10:53:31;;;;;;;19.08;9.25;;;8.50;99.90;;;;;;12306885;28;20493;-86
2021/11/05 10:59:33;;;;;;;17.20;8.43;;;8.60;99.90;;;;;;12304590;28;20586;-85
2021/11/05 11:05:37;;;;;;;22.35;9.93;;;8.90;99.90;;;;;;12286112;28;20121;-86
2021/11/05 11:11:50;;;;;;;20.65;8.00;;;8.90;99.90;;;;;;12316421;28;20042;-86
2021/11/05 11:17:54;;;;;;;14.27;7.35;;;8.90;99.90;;;;;;12316137;28;20054;-85
2021/11/05 11:23:57;;;;;;;17.63;8.88;;;8.90;99.90;;;;;;12317323;28;20601;-86
2021/11/05 11:29:59;;;;;;;15.95;7.75;;;8.90;99.90;;;;;;12309748;28;20126;-85
2021/11/05 11:36:01;;;;;;;19.77;8.05;;;8.90;99.90;;;;;;12304505;28;20050;-85
2021/11/05 11:42:06;;;;;;;15.65;8.70;;;8.90;99.90;;;;;;12304032;28;20138;-85
2021/11/05 11:48:08;;;;;;;15.15;8.27;;;8.90;99.90;;;;;;12334099;28;20065;-85
2021/11/05 11:54:13;;;;;;;23.70;9.13;;;8.80;99.90;;;;;;12305468;28;20085;-85
2021/11/05 12:00:22;;;;;;;19.52;8.77;;;8.90;99.90;;;;;;12319313;28;20059;-85
2021/11/05 12:06:24;;;;;;;16.88;9.43;;;8.90;99.90;;;;;;12308367;28;20126;-85
2021/11/05 12:12:26;;;;;;;16.52;8.55;;;8.90;99.90;;;;;;12311070;28;20910;-86
2021/11/05 12:18:27;;;;;;;15.98;8.65;;;9.10;99.90;;;;;;12303098;28;20047;-86
2021/11/05 12:24:30;;;;;;;14.38;8.68;;;9.20;99.90;;;;;;12316572;28;20105;-85
2021/11/05 12:30:31;;;;;;;14.45;8.38;;;9.10;99.90;;;;;;12299900;28;20100;-85
2021/11/05 12:37:02;;;;;;;;;;;9.00;99.90;;;;;;12305886;28;20113;-85
2021/11/05 12:43:27;;;;;;;16.23;8.45;;;9.20;99.90;;;;;;12296218;28;19926;-85
2021/11/05 12:49:29;;;;;;;12.82;7.80;;;9.50;99.90;;;;;;12306342;28;20074;-85
2021/11/05 12:55:43;;;;;;;14.98;7.97;;;9.70;99.90;;;;;;12302498;28;20491;-86
2021/11/05 13:02:04;;;;;;;12.13;7.13;;;9.60;99.90;;;;;;12333831;28;20050;-86
2021/11/05 13:08:08;;;;;;;14.95;6.93;;;9.60;99.90;;;;;;12304939;28;20358;-85
2021/11/05 13:14:10;;;;;;;11.05;6.20;;;9.40;99.90;;;;;;12311104;28;20047;-85
2021/11/05 13:20:19;;;;;;;9.18;6.18;;;9.60;99.90;;;;;;12304629;28;20100;-85
2021/11/05 13:26:39;;;;;;;9.60;5.25;;;9.50;99.90;;;;;;12304269;28;20051;-86
2021/11/05 13:32:42;;;;;;;10.77;5.30;;;9.60;99.90;;;;;;12342900;28;20397;-86
2021/11/05 13:38:47;;;;;;;10.50;4.90;;;9.40;99.90;;;;;;12310656;28;20118;-86
2021/11/05 13:45:13;;;;;;;10.23;4.75;;;9.40;99.90;;;;;;12304471;28;20058;-85
2021/11/05 13:51:36;;;;;;;9.27;5.32;;;9.60;99.90;;;;;;12309859;28;20043;-84
2021/11/05 13:57:40;;;;;;;8.13;5.60;;;9.40;99.90;;;;;;12337402;28;20696;-85
2021/11/05 14:03:42;;;;;;;10.18;5.90;;;9.40;99.90;;;;;;12303715;28;20088;-85
2021/11/05 14:09:44;;;;;;;9.70;5.35;;;9.30;99.90;;;;;;12301878;28;20101;-85
2021/11/05 14:15:46;;;;;;;9.15;5.63;;;9.40;99.90;;;;;;12315266;28;20047;-85
2021/11/05 14:22:06;;;;;;;9.38;5.85;;;9.30;99.90;;;;;;12314265;28;20047;-86
2021/11/05 14:28:16;;;;;;;12.30;5.90;;;9.30;99.90;;;;;;12311584;28;20054;-85
2021/11/05 14:34:19;;;;;;;12.05;6.05;;;9.40;99.90;;;;;;12310745;28;20724;-86
2021/11/05 14:40:30;;;;;;;10.02;6.18;;;9.10;99.90;;;;;;12311462;28;20055;-86
2021/11/05 14:46:46;;;;;;;9.15;6.00;;;9.00;99.90;;;;;;12344360;28;20058;-85
2021/11/05 14:53:00;;;;;;;11.52;6.40;;;9.10;99.90;;;;;;12311806;28;20047;-85
2021/11/05 14:59:03;;;;;;;11.05;6.38;;;9.10;99.90;;;;;;12310208;28;20067;-85
2021/11/05 15:05:21;;;;;;;11.57;6.00;;;9.10;99.90;;;;;;12299260;28;20045;-85
2021/11/05 15:11:24;;;;;;;11.13;6.28;;;9.20;99.90;;;;;;12312982;28;20077;-85
2021/11/05 15:17:26;;;;;;;11.43;6.22;;;9.20;99.90;;;;;;12311073;28;20057;-85
2021/11/05 15:23:28;;;;;;;11.43;6.72;;;9.00;99.90;;;;;;12308114;28;20116;-86
2021/11/05 15:29:30;;;;;;;16.48;7.13;;;8.90;99.90;;;;;;12308100;28;20124;-85
2021/11/05 15:35:33;;;;;;;11.10;6.25;;;8.80;99.90;;;;;;12309750;28;20055;-85
2021/11/05 15:41:34;;;;;;;13.32;6.35;;;8.70;99.90;;;;;;12307686;28;20468;-85
2021/11/05 15:47:37;;;;;;;14.32;6.18;;;8.70;99.90;;;;;;12302786;28;20117;-86
2021/11/05 15:53:39;;;;;;;11.63;6.32;;;8.70;99.90;;;;;;12322598;28;20046;-86
2021/11/05 15:59:41;;;;;;;10.18;6.00;;;8.70;99.90;;;;;;12340157;28;20505;-85
2021/11/05 16:05:43;;;;;;;11.80;6.35;;;8.70;99.90;;;;;;12307558;28;22006;-85
2021/11/05 16:11:46;;;;;;;9.88;6.05;;;8.70;99.90;;;;;;12326393;28;20434;-86
2021/11/05 16:17:48;;;;;;;15.48;6.45;;;8.70;99.90;;;;;;12301760;28;20142;-85
2021/11/05 16:23:50;;;;;;;13.02;6.80;;;8.70;99.90;;;;;;12304002;28;20081;-86
2021/11/05 16:29:52;;;;;;;18.38;6.97;;;8.70;99.90;;;;;;12305804;28;20116;-86
2021/11/05 16:35:54;;;;;;;14.43;7.22;;;8.70;99.90;;;;;;12304465;28;20443;-87
2021/11/05 16:41:56;;;;;;;14.73;8.00;;;8.70;99.90;;;;;;12302908;28;20557;-86
2021/11/05 16:47:58;;;;;;;19.27;10.15;;;8.70;99.90;;;;;;12302845;28;20085;-85
2021/11/05 16:54:00;;;;;;;20.20;9.80;;;8.70;99.90;;;;;;12300078;28;20054;-85
2021/11/05 17:00:09;;;;;;;17.05;9.93;;;8.70;99.90;;;;;;12306135;28;20101;-86
2021/11/05 17:06:11;;;;;;;18.42;11.32;;;8.80;99.90;;;;;;12307764;28;20081;-86
2021/11/05 17:12:13;;;;;;;19.17;11.50;;;8.70;99.90;;;;;;12339216;28;20130;-87
2021/11/05 17:18:15;;;;;;;21.25;11.73;;;8.70;99.90;;;;;;12299405;28;20047;-87
2021/11/05 17:24:37;;;;;;;18.30;11.40;;;8.70;99.90;;;;;;12313239;28;20776;-87
2021/11/05 17:30:39;;;;;;;23.77;11.70;;;8.70;99.90;;;;;;12308079;28;20047;-87
2021/11/05 17:36:42;;;;;;;20.63;12.38;;;8.70;99.90;;;;;;12294686;28;20078;-86
2021/11/05 17:42:45;;;;;;;19.63;11.50;;;8.70;99.90;;;;;;12295912;28;20082;-87
2021/11/05 17:48:47;;;;;;;20.13;11.20;;;8.80;99.90;;;;;;12293660;28;20502;-87
2021/11/05 17:54:49;;;;;;;24.38;10.95;;;9.00;99.90;;;;;;12322585;28;20575;-87
2021/11/05 18:00:51;;;;;;;17.63;10.77;;;9.00;99.90;;;;;;12318321;28;20103;-87
2021/11/05 18:06:53;;;;;;;17.80;11.00;;;8.90;99.90;;;;;;12330173;28;20055;-87
2021/11/05 18:12:55;;;;;;;17.23;10.75;;;8.90;99.90;;;;;;12310792;28;20058;-87
2021/11/05 18:18:57;;;;;;;19.95;11.52;;;8.80;99.90;;;;;;12311902;28;20108;-87
2021/11/05 18:24:59;;;;;;;17.88;12.05;;;8.80;99.90;;;;;;12314657;28;20114;-87
2021/11/05 18:31:01;;;;;;;23.48;10.85;;;8.60;99.90;;;;;;12309979;28;20161;-87
2021/11/05 18:37:04;;;;;;;20.95;10.93;;;8.40;99.90;;;;;;12309580;28;20064;-87
2021/11/05 18:43:06;;;;;;;18.83;11.43;;;8.30;99.90;;;;;;12319306;28;20043;-87
2021/11/05 18:49:08;;;;;;;25.42;11.60;;;8.30;99.90;;;;;;12304899;28;20088;-87
2021/11/05 18:55:16;;;;;;;20.13;11.30;;;8.20;99.90;;;;;;12307009;28;20042;-86
2021/11/05 19:01:18;;;;;;;24.60;11.23;;;8.20;99.90;;;;;;12309257;28;20504;-87
2021/11/05 19:07:19;;;;;;;16.48;10.38;;;8.20;99.90;;;;;;12308096;28;20054;-87
2021/11/05 19:13:23;;;;;;;18.80;10.88;;;8.10;99.90;;;;;;12322798;28;20105;-87
2021/11/05 19:19:25;;;;;;;17.17;10.70;;;8.00;99.90;;;;;;12311231;28;20057;-87
2021/11/05 19:25:29;;;;;;;17.35;10.88;;;7.90;99.90;;;;;;12311794;28;20047;-86
2021/11/05 19:31:31;;;;;;;18.65;11.63;;;7.90;99.90;;;;;;12322597;28;20074;-87
2021/11/05 19:37:33;;;;;;;18.40;10.73;;;7.80;99.90;;;;;;12308779;28;20100;-87
2021/11/05 19:43:37;;;;;;;21.00;10.98;;;7.80;99.90;;;;;;12306586;28;20050;-87
2021/11/05 19:49:42;;;;;;;19.98;11.48;;;7.80;99.90;;;;;;12302896;28;20050;-87
2021/11/05 19:55:44;;;;;;;;;;;7.80;99.90;;;;;;12305892;28;20097;-87
2021/11/05 20:01:46;;;;;;;21.52;11.75;;;7.90;99.90;;;;;;12312235;28;20334;-86
2021/11/05 20:07:50;;;;;;;19.30;10.45;;;7.80;99.90;;;;;;12304382;28;20524;-87
2021/11/05 20:13:52;;;;;;;17.23;9.63;;;7.80;99.90;;;;;;12305137;28;20495;-86
2021/11/05 20:19:54;;;;;;;19.42;9.18;;;7.70;99.90;;;;;;12333728;28;20081;-87
2021/11/05 20:25:58;;;;;;;19.90;9.15;;;7.70;99.90;;;;;;12304663;28;20392;-86
2021/11/05 20:32:00;;;;;;;21.00;8.95;;;7.70;99.90;;;;;;12304213;28;20070;-86
2021/11/05 20:38:03;;;;;;;18.52;9.35;;;7.60;99.90;;;;;;12309764;28;20060;-86
2021/11/05 20:44:05;;;;;;;18.17;8.43;;;7.70;99.90;;;;;;12320834;28;20085;-85
2021/11/05 20:50:11;;;;;;;15.85;8.23;;;7.70;99.90;;;;;;12299016;28;20109;-87
2021/11/05 20:56:15;;;;;;;16.13;8.90;;;7.80;99.90;;;;;;12307433;28;20054;-86
2021/11/05 21:02:18;;;;;;;14.27;7.97;;;7.90;99.90;;;;;;12299524;28;20101;-86
2021/11/05 21:08:20;;;;;;;12.13;8.00;;;7.80;99.90;;;;;;12302883;28;20471;-86
2021/11/05 21:14:22;;;;;;;14.48;7.25;;;7.80;99.90;;;;;;12303933;28;20467;-87
2021/11/05 21:20:25;;;;;;;16.80;8.00;;;7.80;99.90;;;;;;12299725;28;20288;-86
2021/11/05 21:26:27;;;;;;;16.88;7.93;;;7.80;99.90;;;;;;12305511;28;20047;-86
2021/11/05 21:32:29;;;;;;;16.45;7.55;;;7.80;99.90;;;;;;12301067;28;20689;-86
2021/11/05 21:38:32;;;;;;;17.08;7.75;;;7.70;99.90;;;;;;12298694;28;20574;-86
2021/11/05 21:44:34;;;;;;;15.00;8.10;;;7.70;99.90;;;;;;12298850;28;20145;-86
2021/11/05 21:50:40;;;;;;;14.93;8.45;;;7.60;99.90;;;;;;12301625;28;20047;-86
2021/11/05 21:56:42;;;;;;;13.63;8.38;;;7.60;99.90;;;;;;12305977;28;20085;-86
2021/11/05 22:02:44;;;;;;;14.77;8.93;;;7.60;99.90;;;;;;12300631;28;20137;-87
2021/11/05 22:08:46;;;;;;;15.45;8.95;;;7.50;99.90;;;;;;12303009;28;20050;-87
2021/11/05 22:14:48;;;;;;;14.25;7.63;;;7.50;99.90;;;;;;12299624;28;20395;-86
2021/11/05 22:20:50;;;;;;;16.55;6.97;;;7.50;99.90;;;;;;12301323;28;20047;-86
2021/11/05 22:26:52;;;;;;;11.48;7.43;;;7.40;99.90;;;;;;12304139;28;20085;-87
2021/11/05 22:32:56;;;;;;;11.07;6.73;;;7.40;99.90;;;;;;12344446;28;20118;-86
2021/11/05 22:38:57;;;;;;;13.57;6.18;;;7.40;99.90;;;;;;12345746;28;20108;-87
2021/11/05 22:44:59;;;;;;;12.35;6.45;;;7.40;99.90;;;;;;12315918;28;20481;-86
2021/11/05 22:51:02;;;;;;;13.93;6.80;;;7.30;99.90;;;;;;12321680;28;20054;-87
2021/11/05 22:57:05;;;;;;;14.25;6.78;;;7.30;99.90;;;;;;12324416;28;20163;-85
2021/11/05 23:03:13;;;;;;;10.90;7.30;;;7.40;99.90;;;;;;12321441;28;20050;-86
2021/11/05 23:09:15;;;;;;;19.85;9.05;;;7.40;99.90;;;;;;12309912;28;20054;-86
2021/11/05 23:15:20;;;;;;;17.38;8.00;;;7.40;99.90;;;;;;12308126;28;20054;-86
2021/11/05 23:21:26;;;;;;;13.10;7.90;;;7.40;99.90;;;;;;12305692;28;20130;-86
2021/11/05 23:27:28;;;;;;;12.50;7.75;;;7.40;99.90;;;;;;12299032;28;20141;-86
2021/11/05 23:33:30;;;;;;;14.45;8.10;;;7.50;99.90;;;;;;12303818;28;20046;-86
2021/11/05 23:39:32;;;;;;;10.48;6.80;;;7.50;99.90;;;;;;12301959;28;20466;-86
2021/11/05 23:45:34;;;;;;;15.05;7.38;;;7.50;99.90;;;;;;12302002;28;20050;-86
2021/11/05 23:51:36;;;;;;;15.98;7.22;;;7.40;99.90;;;;;;12302004;28;20093;-86
2021/11/05 23:57:38;;;;;;;17.88;8.13;;;7.40;99.90;;;;;;12305410;28;20404;-86
